sensor_id;sensor_type;location;lat;lon;timestamp;pressure;altitude;pressure_sealevel;temperature;humidity
59443;BME280;45247;47.466;19.004;2023-05-21T00:01:58;100012.31;;;17.52;100.00
59443;BME280;45247;47.466;19.004;2023-05-21T00:04:26;100007.47;;;17.46;100.00
59443;BME280;45247;47.466;19.004;2023-05-21T00:06:57;100004.63;;;17.38;100.00
59443;BME280;45247;47.466;19.004;2023-05-21T00:09:25;100009.66;;;17.32;100.00
59443;BME280;45247;47.466;19.004;2023-05-21T00:11:53;100014.56;;;17.26;100.00
59443;BME280;45247;47.466;19.004;2023-05-21T00:14:23;100021.72;;;17.26;100.00
59443;BME280;45247;47.466;19.004;2023-05-21T00:16:51;100016.38;;;17.26;100.00
59443;BME280;45247;47.466;19.004;2023-05-21T00:19:19;100019.41;;;17.21;100.00
59443;BME280;45247;47.466;19.004;2023-05-21T00:21:48;100019.94;;;17.15;100.00
59443;BME280;45247;47.466;19.004;2023-05-21T00:24:16;100016.84;;;17.10;100.00
59443;BME280;45247;47.466;19.004;2023-05-21T00:26:44;100019.06;;;17.05;100.00
59443;BME280;45247;47.466;19.004;2023-05-21T00:29:12;100019.31;;;17.02;100.00
59443;BME280;45247;47.466;19.004;2023-05-21T00:31:42;100025.47;;;17.02;100.00
59443;BME280;45247;47.466;19.004;2023-05-21T00:34:11;100023.66;;;17.03;100.00
59443;BME280;45247;47.466;19.004;2023-05-21T00:36:40;100025.88;;;16.98;100.00
59443;BME280;45247;47.466;19.004;2023-05-21T00:39:11;100027.69;;;16.97;100.00
59443;BME280;45247;47.466;19.004;2023-05-21T00:41:39;100016.81;;;16.89;100.00
59443;BME280;45247;47.466;19.004;2023-05-21T00:44:08;100023.13;;;16.88;100.00
59443;BME280;45247;47.466;19.004;2023-05-21T00:46:41;100018.75;;;16.87;100.00
59443;BME280;45247;47.466;19.004;2023-05-21T00:49:10;100010.69;;;16.77;100.00
59443;BME280;45247;47.466;19.004;2023-05-21T00:51:40;100014.47;;;16.75;100.00
59443;BME280;45247;47.466;19.004;2023-05-21T00:54:11;100011.28;;;16.70;100.00
59443;BME280;45247;47.466;19.004;2023-05-21T00:56:39;100003.44;;;16.68;100.00
59443;BME280;45247;47.466;19.004;2023-05-21T00:59:08;100006.25;;;16.67;100.00
59443;BME280;45247;47.466;19.004;2023-05-21T01:01:36;100013.00;;;16.71;100.00
59443;BME280;45247;47.466;19.004;2023-05-21T01:04:06;100024.63;;;16.70;100.00
59443;BME280;45247;47.466;19.004;2023-05-21T01:06:34;100008.16;;;16.65;100.00
59443;BME280;45247;47.466;19.004;2023-05-21T01:09:03;100009.41;;;16.61;100.00
59443;BME280;45247;47.466;19.004;2023-05-21T01:11:37;100001.28;;;16.62;100.00
59443;BME280;45247;47.466;19.004;2023-05-21T01:14:07;99999.34;;;16.64;100.00
59443;BME280;45247;47.466;19.004;2023-05-21T01:16:38;100000.31;;;16.63;100.00
59443;BME280;45247;47.466;19.004;2023-05-21T01:19:12;99999.03;;;16.58;100.00
59443;BME280;45247;47.466;19.004;2023-05-21T01:21:44;99991.06;;;16.46;100.00
59443;BME280;45247;47.466;19.004;2023-05-21T01:24:14;99996.97;;;16.50;100.00
59443;BME280;45247;47.466;19.004;2023-05-21T01:26:43;99998.06;;;16.47;100.00
59443;BME280;45247;47.466;19.004;2023-05-21T01:29:13;99998.59;;;16.41;100.00
59443;BME280;45247;47.466;19.004;2023-05-21T01:31:49;100001.50;;;16.38;100.00
59443;BME280;45247;47.466;19.004;2023-05-21T01:34:25;100001.34;;;16.40;100.00
59443;BME280;45247;47.466;19.004;2023-05-21T01:36:59;99996.69;;;16.32;100.00
59443;BME280;45247;47.466;19.004;2023-05-21T01:39:33;99999.84;;;16.26;100.00
59443;BME280;45247;47.466;19.004;2023-05-21T01:42:02;99999.00;;;16.25;100.00
59443;BME280;45247;47.466;19.004;2023-05-21T01:44:33;100010.00;;;16.21;100.00
59443;BME280;45247;47.466;19.004;2023-05-21T01:47:03;100004.69;;;16.21;100.00
59443;BME280;45247;47.466;19.004;2023-05-21T01:49:32;100013.28;;;16.13;100.00
59443;BME280;45247;47.466;19.004;2023-05-21T01:52:00;99999.66;;;16.07;100.00
59443;BME280;45247;47.466;19.004;2023-05-21T01:54:30;99993.34;;;16.08;100.00
59443;BME280;45247;47.466;19.004;2023-05-21T01:56:59;100002.69;;;16.02;100.00
59443;BME280;45247;47.466;19.004;2023-05-21T01:59:27;99996.50;;;16.01;100.00
59443;BME280;45247;47.466;19.004;2023-05-21T02:01:55;99998.44;;;15.99;100.00
59443;BME280;45247;47.466;19.004;2023-05-21T02:04:23;99997.22;;;15.92;100.00
59443;BME280;45247;47.466;19.004;2023-05-21T02:06:52;100008.84;;;15.91;100.00
59443;BME280;45247;47.466;19.004;2023-05-21T02:09:20;100001.59;;;15.82;100.00
59443;BME280;45247;47.466;19.004;2023-05-21T02:11:50;99998.47;;;15.77;100.00
59443;BME280;45247;47.466;19.004;2023-05-21T02:14:18;100008.00;;;15.80;100.00
59443;BME280;45247;47.466;19.004;2023-05-21T02:16:46;100000.16;;;15.78;100.00
59443;BME280;45247;47.466;19.004;2023-05-21T02:19:14;99995.22;;;15.73;100.00
59443;BME280;45247;47.466;19.004;2023-05-21T02:21:43;99998.22;;;15.69;100.00
59443;BME280;45247;47.466;19.004;2023-05-21T02:24:12;99993.88;;;15.68;100.00
59443;BME280;45247;47.466;19.004;2023-05-21T02:26:40;99988.56;;;15.68;100.00
59443;BME280;45247;47.466;19.004;2023-05-21T02:29:10;99986.63;;;15.70;100.00
59443;BME280;45247;47.466;19.004;2023-05-21T02:31:38;99991.94;;;15.70;100.00
59443;BME280;45247;47.466;19.004;2023-05-21T02:34:06;99990.03;;;15.72;100.00
59443;BME280;45247;47.466;19.004;2023-05-21T02:36:35;99994.59;;;15.70;100.00
59443;BME280;45247;47.466;19.004;2023-05-21T02:39:03;99989.03;;;15.73;100.00
59443;BME280;45247;47.466;19.004;2023-05-21T02:41:31;99991.34;;;15.66;100.00
59443;BME280;45247;47.466;19.004;2023-05-21T02:43:59;99982.50;;;15.66;100.00
59443;BME280;45247;47.466;19.004;2023-05-21T02:46:28;99984.09;;;15.68;100.00
59443;BME280;45247;47.466;19.004;2023-05-21T02:48:56;99990.50;;;15.66;100.00
59443;BME280;45247;47.466;19.004;2023-05-21T02:51:25;99990.25;;;15.69;100.00
59443;BME280;45247;47.466;19.004;2023-05-21T02:53:53;99990.50;;;15.66;100.00
59443;BME280;45247;47.466;19.004;2023-05-21T02:56:21;99994.97;;;15.65;100.00
59443;BME280;45247;47.466;19.004;2023-05-21T02:58:50;99990.50;;;15.66;100.00
59443;BME280;45247;47.466;19.004;2023-05-21T03:01:19;99996.53;;;15.68;100.00
59443;BME280;45247;47.466;19.004;2023-05-21T03:03:48;99995.56;;;15.69;100.00
59443;BME280;45247;47.466;19.004;2023-05-21T03:06:18;99996.53;;;15.68;100.00
59443;BME280;45247;47.466;19.004;2023-05-21T03:08:46;99998.47;;;15.77;100.00
59443;BME280;45247;47.466;19.004;2023-05-21T03:11:14;99988.81;;;15.76;100.00
59443;BME280;45247;47.466;19.004;2023-05-21T03:13:42;99986.72;;;15.80;100.00
59443;BME280;45247;47.466;19.004;2023-05-21T03:16:10;99984.19;;;15.78;100.00
59443;BME280;45247;47.466;19.004;2023-05-21T03:18:39;99992.78;;;15.82;100.00
59443;BME280;45247;47.466;19.004;2023-05-21T03:21:10;99981.16;;;15.83;100.00
59443;BME280;45247;47.466;19.004;2023-05-21T03:23:39;99984.19;;;15.78;100.00
59443;BME280;45247;47.466;19.004;2023-05-21T03:26:07;99978.63;;;15.81;100.00
59443;BME280;45247;47.466;19.004;2023-05-21T03:28:35;99977.44;;;15.85;100.00
59443;BME280;45247;47.466;19.004;2023-05-21T03:31:04;99981.63;;;15.88;100.00
59443;BME280;45247;47.466;19.004;2023-05-21T03:33:32;99982.00;;;15.94;100.00
59443;BME280;45247;47.466;19.004;2023-05-21T03:36:00;99987.56;;;16.02;100.00
59443;BME280;45247;47.466;19.004;2023-05-21T03:38:29;99984.38;;;16.09;100.00
59443;BME280;45247;47.466;19.004;2023-05-21T03:40:57;99995.13;;;16.18;100.00
59443;BME280;45247;47.466;19.004;2023-05-21T03:43:25;99994.28;;;16.18;100.00
59443;BME280;45247;47.466;19.004;2023-05-21T03:45:54;99988.31;;;16.37;100.00
59443;BME280;45247;47.466;19.004;2023-05-21T03:48:22;99982.81;;;17.02;100.00
59443;BME280;45247;47.466;19.004;2023-05-21T03:50:50;99988.19;;;16.91;100.00
59443;BME280;45247;47.466;19.004;2023-05-21T03:53:18;99985.63;;;16.69;100.00
59443;BME280;45247;47.466;19.004;2023-05-21T03:55:48;100004.34;;;16.58;100.00
59443;BME280;45247;47.466;19.004;2023-05-21T03:58:21;99992.25;;;16.53;100.00
59443;BME280;45247;47.466;19.004;2023-05-21T04:00:49;100000.63;;;16.49;100.00
59443;BME280;45247;47.466;19.004;2023-05-21T04:03:17;99990.06;;;16.47;100.00
59443;BME280;45247;47.466;19.004;2023-05-21T04:05:45;99999.25;;;16.55;100.00
59443;BME280;45247;47.466;19.004;2023-05-21T04:08:14;99995.38;;;16.59;100.00
59443;BME280;45247;47.466;19.004;2023-05-21T04:10:43;100001.16;;;16.64;100.00
59443;BME280;45247;47.466;19.004;2023-05-21T04:13:12;100001.38;;;16.72;100.00
59443;BME280;45247;47.466;19.004;2023-05-21T04:15:40;100005.44;;;16.87;100.00
59443;BME280;45247;47.466;19.004;2023-05-21T04:18:10;100005.78;;;17.15;100.00
59443;BME280;45247;47.466;19.004;2023-05-21T04:20:39;100009.19;;;17.47;100.00
59443;BME280;45247;47.466;19.004;2023-05-21T04:23:07;100003.88;;;18.67;94.65
59443;BME280;45247;47.466;19.004;2023-05-21T04:25:36;100000.63;;;20.51;77.78
59443;BME280;45247;47.466;19.004;2023-05-21T04:28:04;100002.78;;;22.30;66.29
59443;BME280;45247;47.466;19.004;2023-05-21T04:30:34;100007.72;;;22.67;61.72
59443;BME280;45247;47.466;19.004;2023-05-21T04:33:02;100004.66;;;23.52;58.54
59443;BME280;45247;47.466;19.004;2023-05-21T04:35:30;99996.28;;;24.25;55.24
59443;BME280;45247;47.466;19.004;2023-05-21T04:37:59;99999.59;;;24.89;53.09
59443;BME280;45247;47.466;19.004;2023-05-21T04:40:29;100000.63;;;25.56;51.21
59443;BME280;45247;47.466;19.004;2023-05-21T04:43:02;100011.75;;;25.90;49.27
59443;BME280;45247;47.466;19.004;2023-05-21T04:45:30;99999.16;;;25.97;48.44
59443;BME280;45247;47.466;19.004;2023-05-21T04:47:59;100002.69;;;26.92;46.66
59443;BME280;45247;47.466;19.004;2023-05-21T04:50:28;99988.84;;;26.22;47.19
59443;BME280;45247;47.466;19.004;2023-05-21T04:52:57;99992.69;;;26.92;46.19
59443;BME280;45247;47.466;19.004;2023-05-21T04:55:25;99993.56;;;26.50;46.84
59443;BME280;45247;47.466;19.004;2023-05-21T04:57:54;99996.59;;;27.33;45.15
59443;BME280;45247;47.466;19.004;2023-05-21T05:00:23;99991.59;;;27.08;45.50
59443;BME280;45247;47.466;19.004;2023-05-21T05:02:53;100000.00;;;27.13;44.92
59443;BME280;45247;47.466;19.004;2023-05-21T05:05:23;99984.94;;;27.67;43.83
59443;BME280;45247;47.466;19.004;2023-05-21T05:07:51;99993.84;;;27.26;44.37
59443;BME280;45247;47.466;19.004;2023-05-21T05:10:19;99986.16;;;28.67;42.66
59443;BME280;45247;47.466;19.004;2023-05-21T05:12:47;99985.75;;;29.36;40.20
59443;BME280;45247;47.466;19.004;2023-05-21T05:15:15;99986.91;;;30.38;38.89
59443;BME280;45247;47.466;19.004;2023-05-21T05:17:44;99986.41;;;30.03;39.44
59443;BME280;45247;47.466;19.004;2023-05-21T05:20:14;99981.88;;;30.35;37.64
59443;BME280;45247;47.466;19.004;2023-05-21T05:22:43;99984.50;;;30.49;38.24
59443;BME280;45247;47.466;19.004;2023-05-21T05:25:11;99977.16;;;30.24;38.99
59443;BME280;45247;47.466;19.004;2023-05-21T05:27:39;99975.97;;;30.00;38.73
59443;BME280;45247;47.466;19.004;2023-05-21T05:30:08;99984.72;;;30.09;38.75
59443;BME280;45247;47.466;19.004;2023-05-21T05:32:36;99984.38;;;29.92;38.14
59443;BME280;45247;47.466;19.004;2023-05-21T05:35:06;99985.66;;;29.89;38.89
59443;BME280;45247;47.466;19.004;2023-05-21T05:37:34;99986.53;;;29.63;38.78
59443;BME280;45247;47.466;19.004;2023-05-21T05:40:05;99991.66;;;30.50;37.45
59443;BME280;45247;47.466;19.004;2023-05-21T05:42:33;99991.16;;;29.63;38.98
59443;BME280;45247;47.466;19.004;2023-05-21T05:45:02;99992.13;;;29.88;38.95
59443;BME280;45247;47.466;19.004;2023-05-21T05:47:30;99991.22;;;29.10;38.61
59443;BME280;45247;47.466;19.004;2023-05-21T05:49:58;99993.56;;;28.32;40.27
59443;BME280;45247;47.466;19.004;2023-05-21T05:52:26;100001.16;;;27.32;41.72
59443;BME280;45247;47.466;19.004;2023-05-21T05:54:54;99985.13;;;28.07;41.07
59443;BME280;45247;47.466;19.004;2023-05-21T05:57:24;99988.50;;;28.22;40.72
59443;BME280;45247;47.466;19.004;2023-05-21T05:59:52;99988.41;;;28.37;40.67
59443;BME280;45247;47.466;19.004;2023-05-21T06:02:22;99979.56;;;27.74;42.42
59443;BME280;45247;47.466;19.004;2023-05-21T06:04:50;99980.16;;;27.34;42.33
59443;BME280;45247;47.466;19.004;2023-05-21T06:07:19;99977.88;;;26.88;43.30
59443;BME280;45247;47.466;19.004;2023-05-21T06:09:47;99980.22;;;26.91;43.50
59443;BME280;45247;47.466;19.004;2023-05-21T06:12:15;99975.91;;;27.25;42.65
59443;BME280;45247;47.466;19.004;2023-05-21T06:14:45;99975.53;;;27.63;42.17
59443;BME280;45247;47.466;19.004;2023-05-21T06:17:14;99976.25;;;27.78;41.55
59443;BME280;45247;47.466;19.004;2023-05-21T06:19:43;99978.13;;;26.93;44.21
59443;BME280;45247;47.466;19.004;2023-05-21T06:22:11;99980.94;;;26.21;44.68
59443;BME280;45247;47.466;19.004;2023-05-21T06:24:39;99973.81;;;26.35;46.03
59443;BME280;45247;47.466;19.004;2023-05-21T06:27:07;99973.53;;;26.08;45.16
59443;BME280;45247;47.466;19.004;2023-05-21T06:29:36;99966.91;;;25.52;46.75
59443;BME280;45247;47.466;19.004;2023-05-21T06:32:06;99958.44;;;24.87;49.08
59443;BME280;45247;47.466;19.004;2023-05-21T06:34:34;99967.69;;;25.45;47.52
59443;BME280;45247;47.466;19.004;2023-05-21T06:37:03;99960.13;;;24.88;48.85
59443;BME280;45247;47.466;19.004;2023-05-21T06:39:31;99956.00;;;24.78;48.26
59443;BME280;45247;47.466;19.004;2023-05-21T06:41:59;99949.03;;;25.21;47.52
59443;BME280;45247;47.466;19.004;2023-05-21T06:44:27;99945.88;;;24.80;48.16
59443;BME280;45247;47.466;19.004;2023-05-21T06:46:56;99953.69;;;24.89;49.55
59443;BME280;45247;47.466;19.004;2023-05-21T06:49:25;99957.59;;;25.10;48.31
59443;BME280;45247;47.466;19.004;2023-05-21T06:51:54;99949.78;;;25.15;47.57
59443;BME280;45247;47.466;19.004;2023-05-21T06:54:22;99952.47;;;24.77;48.21
59443;BME280;45247;47.466;19.004;2023-05-21T06:56:52;99937.41;;;25.35;48.28
59443;BME280;45247;47.466;19.004;2023-05-21T06:59:20;99950.34;;;25.25;47.16
59443;BME280;45247;47.466;19.004;2023-05-21T07:01:49;99945.22;;;25.30;48.12
59443;BME280;45247;47.466;19.004;2023-05-21T07:04:17;99940.28;;;24.96;48.61
59443;BME280;45247;47.466;19.004;2023-05-21T07:06:46;99949.78;;;25.15;48.57
59443;BME280;45247;47.466;19.004;2023-05-21T07:09:15;99946.66;;;25.03;48.16
59443;BME280;45247;47.466;19.004;2023-05-21T07:11:43;99941.00;;;25.13;48.05
59443;BME280;45247;47.466;19.004;2023-05-21T07:14:12;99944.19;;;25.46;48.29
59443;BME280;45247;47.466;19.004;2023-05-21T07:16:40;99946.81;;;25.54;48.03
59443;BME280;45247;47.466;19.004;2023-05-21T07:19:08;99944.38;;;25.89;47.87
59443;BME280;45247;47.466;19.004;2023-05-21T07:21:56;99944.47;;;25.51;46.67
59443;BME280;45247;47.466;19.004;2023-05-21T07:24:24;99947.78;;;24.71;48.33
59443;BME280;45247;47.466;19.004;2023-05-21T07:26:53;99940.81;;;24.77;49.53
59443;BME280;45247;47.466;19.004;2023-05-21T07:29:21;99929.13;;;24.84;48.61
59443;BME280;45247;47.466;19.004;2023-05-21T07:31:49;99934.63;;;25.14;49.58
59443;BME280;45247;47.466;19.004;2023-05-21T07:34:17;99928.78;;;25.02;49.12
59443;BME280;45247;47.466;19.004;2023-05-21T07:36:46;99929.63;;;25.03;49.05
59443;BME280;45247;47.466;19.004;2023-05-21T07:39:15;99926.22;;;25.23;49.49
59443;BME280;45247;47.466;19.004;2023-05-21T07:41:44;99944.75;;;25.12;49.33
59443;BME280;45247;47.466;19.004;2023-05-21T07:44:12;99927.41;;;25.06;48.91
59443;BME280;45247;47.466;19.004;2023-05-21T07:46:40;99935.91;;;24.80;49.97
59443;BME280;45247;47.466;19.004;2023-05-21T07:49:09;99935.53;;;24.83;50.01
59443;BME280;45247;47.466;19.004;2023-05-21T07:51:43;99928.44;;;24.44;50.55
59443;BME280;45247;47.466;19.004;2023-05-21T07:54:11;99930.06;;;24.91;52.24
59443;BME280;45247;47.466;19.004;2023-05-21T07:56:40;99933.13;;;24.88;50.44
59443;BME280;45247;47.466;19.004;2023-05-21T07:59:09;99925.94;;;25.33;49.64
59443;BME280;45247;47.466;19.004;2023-05-21T08:01:39;99916.81;;;25.19;49.88
59443;BME280;45247;47.466;19.004;2023-05-21T08:04:09;99925.66;;;25.13;50.48
59443;BME280;45247;47.466;19.004;2023-05-21T08:06:37;99924.31;;;24.94;51.50
59443;BME280;45247;47.466;19.004;2023-05-21T08:09:05;99917.59;;;25.05;49.32
59443;BME280;45247;47.466;19.004;2023-05-21T08:11:33;99929.41;;;24.89;50.38
59443;BME280;45247;47.466;19.004;2023-05-21T08:14:03;99939.03;;;24.69;49.68
59443;BME280;45247;47.466;19.004;2023-05-21T08:16:31;99931.69;;;24.63;49.73
59443;BME280;45247;47.466;19.004;2023-05-21T08:18:59;99929.19;;;24.76;49.82
59443;BME280;45247;47.466;19.004;2023-05-21T08:21:28;99928.88;;;24.71;50.36
59443;BME280;45247;47.466;19.004;2023-05-21T08:23:56;99928.53;;;25.12;51.41
59443;BME280;45247;47.466;19.004;2023-05-21T08:26:26;99934.41;;;25.15;49.90
59443;BME280;45247;47.466;19.004;2023-05-21T08:28:54;99935.91;;;24.80;50.57
59443;BME280;45247;47.466;19.004;2023-05-21T08:31:23;99927.81;;;25.33;52.78
59443;BME280;45247;47.466;19.004;2023-05-21T08:33:53;99927.56;;;25.05;50.81
59443;BME280;45247;47.466;19.004;2023-05-21T08:36:23;99927.44;;;24.83;51.59
59443;BME280;45247;47.466;19.004;2023-05-21T08:38:51;99929.81;;;24.63;50.24
59443;BME280;45247;47.466;19.004;2023-05-21T08:41:20;99934.19;;;24.64;51.26
59443;BME280;45247;47.466;19.004;2023-05-21T08:43:54;99937.56;;;24.43;51.43
59443;BME280;45247;47.466;19.004;2023-05-21T08:46:28;99928.72;;;24.49;51.73
59443;BME280;45247;47.466;19.004;2023-05-21T08:49:01;99932.69;;;24.62;51.22
59443;BME280;45247;47.466;19.004;2023-05-21T08:51:30;99929.63;;;24.65;51.93
59443;BME280;45247;47.466;19.004;2023-05-21T08:53:58;99925.94;;;24.43;52.87
59443;BME280;45247;47.466;19.004;2023-05-21T08:56:30;99929.81;;;24.63;52.80
59443;BME280;45247;47.466;19.004;2023-05-21T08:58:59;99926.72;;;24.66;50.51
59443;BME280;45247;47.466;19.004;2023-05-21T09:01:31;99931.91;;;24.91;51.41
59443;BME280;45247;47.466;19.004;2023-05-21T09:04:00;99921.41;;;24.96;50.15
59443;BME280;45247;47.466;19.004;2023-05-21T09:06:45;99932.88;;;24.98;50.79
59443;BME280;45247;47.466;19.004;2023-05-21T09:09:18;99929.97;;;24.85;50.53
59443;BME280;45247;47.466;19.004;2023-05-21T09:11:51;99919.25;;;24.91;49.78
59443;BME280;45247;47.466;19.004;2023-05-21T09:14:20;99922.88;;;24.84;50.01
59443;BME280;45247;47.466;19.004;2023-05-21T09:16:51;99924.28;;;24.80;51.02
59443;BME280;45247;47.466;19.004;2023-05-21T09:19:19;99916.19;;;24.94;51.65
59443;BME280;45247;47.466;19.004;2023-05-21T09:21:50;99911.00;;;25.08;50.57
59443;BME280;45247;47.466;19.004;2023-05-21T09:24:20;99929.09;;;25.22;51.40
59443;BME280;45247;47.466;19.004;2023-05-21T09:26:49;99911.44;;;24.96;48.56
59443;BME280;45247;47.466;19.004;2023-05-21T09:29:18;99937.59;;;24.81;49.90
59443;BME280;45247;47.466;19.004;2023-05-21T09:31:46;99912.13;;;24.98;50.19
59443;BME280;45247;47.466;19.004;2023-05-21T09:34:16;99928.75;;;24.87;49.67
59443;BME280;45247;47.466;19.004;2023-05-21T09:36:44;99920.41;;;24.97;48.11
59443;BME280;45247;47.466;19.004;2023-05-21T09:39:26;99910.16;;;24.92;49.57
59443;BME280;45247;47.466;19.004;2023-05-21T09:41:55;99917.50;;;24.98;48.65
59443;BME280;45247;47.466;19.004;2023-05-21T09:44:24;99919.09;;;25.08;48.96
59443;BME280;45247;47.466;19.004;2023-05-21T09:46:55;99926.69;;;25.27;50.33
59443;BME280;45247;47.466;19.004;2023-05-21T09:49:26;99920.88;;;25.60;49.85
59443;BME280;45247;47.466;19.004;2023-05-21T09:51:55;99920.88;;;25.60;47.90
59443;BME280;45247;47.466;19.004;2023-05-21T09:54:23;99906.59;;;25.44;46.78
59443;BME280;45247;47.466;19.004;2023-05-21T09:56:51;99911.41;;;25.49;48.00
59443;BME280;45247;47.466;19.004;2023-05-21T09:59:20;99914.75;;;25.51;45.70
59443;BME280;45247;47.466;19.004;2023-05-21T10:01:49;99920.25;;;25.28;47.64
59443;BME280;45247;47.466;19.004;2023-05-21T10:04:18;99915.22;;;25.55;46.64
59443;BME280;45247;47.466;19.004;2023-05-21T10:06:50;99913.81;;;25.59;47.50
59443;BME280;45247;47.466;19.004;2023-05-21T10:09:19;99906.56;;;25.59;45.81
59443;BME280;45247;47.466;19.004;2023-05-21T10:11:48;99900.22;;;25.67;45.02
59443;BME280;45247;47.466;19.004;2023-05-21T10:14:19;99903.00;;;25.88;46.14
59443;BME280;45247;47.466;19.004;2023-05-21T10:16:49;99905.63;;;25.52;46.79
59443;BME280;45247;47.466;19.004;2023-05-21T10:19:20;99916.53;;;25.59;47.84
59443;BME280;45247;47.466;19.004;2023-05-21T10:21:54;99896.50;;;25.53;46.70
59443;BME280;45247;47.466;19.004;2023-05-21T10:24:23;99896.91;;;25.35;44.93
59443;BME280;45247;47.466;19.004;2023-05-21T10:26:52;99889.53;;;25.29;46.53
59443;BME280;45247;47.466;19.004;2023-05-21T10:29:22;99900.41;;;25.51;47.81
59443;BME280;45247;47.466;19.004;2023-05-21T10:31:51;99895.06;;;25.72;46.60
59443;BME280;45247;47.466;19.004;2023-05-21T10:34:20;99898.88;;;25.92;46.41
59443;BME280;45247;47.466;19.004;2023-05-21T10:36:51;99896.91;;;26.01;44.63
59443;BME280;45247;47.466;19.004;2023-05-21T10:39:24;99902.09;;;26.03;45.34
59443;BME280;45247;47.466;19.004;2023-05-21T10:41:59;99893.00;;;26.46;46.40
59443;BME280;45247;47.466;19.004;2023-05-21T10:44:37;99891.16;;;26.47;44.35
59443;BME280;45247;47.466;19.004;2023-05-21T10:47:25;99887.78;;;26.45;46.20
59443;BME280;45247;47.466;19.004;2023-05-21T10:50:07;99895.53;;;26.76;45.41
59443;BME280;45247;47.466;19.004;2023-05-21T10:52:54;99896.81;;;26.80;41.49
59443;BME280;45247;47.466;19.004;2023-05-21T10:55:37;99883.88;;;27.04;41.46
59443;BME280;45247;47.466;19.004;2023-05-21T10:58:28;99876.47;;;27.19;41.56
59443;BME280;45247;47.466;19.004;2023-05-21T11:01:00;99874.09;;;27.37;43.06
59443;BME280;45247;47.466;19.004;2023-05-21T11:03:30;99879.59;;;27.16;41.64
59443;BME280;45247;47.466;19.004;2023-05-21T11:06:03;99868.03;;;27.35;41.55
59443;BME280;45247;47.466;19.004;2023-05-21T11:08:32;99860.38;;;27.45;41.54
59443;BME280;45247;47.466;19.004;2023-05-21T11:11:03;99866.59;;;27.87;42.94
59443;BME280;45247;47.466;19.004;2023-05-21T11:13:44;99867.78;;;27.30;41.67
59443;BME280;45247;47.466;19.004;2023-05-21T11:16:15;99847.22;;;27.42;41.48
59443;BME280;45247;47.466;19.004;2023-05-21T11:18:57;99861.44;;;27.51;41.92
59443;BME280;45247;47.466;19.004;2023-05-21T11:21:28;99880.47;;;27.23;42.21
59443;BME280;45247;47.466;19.004;2023-05-21T11:24:03;99870.94;;;27.06;44.36
59443;BME280;45247;47.466;19.004;2023-05-21T11:27:01;99875.75;;;26.76;43.81
59443;BME280;45247;47.466;19.004;2023-05-21T11:32:14;99868.00;;;26.02;45.33
59443;BME280;45247;47.466;19.004;2023-05-21T11:34:47;99869.66;;;26.03;46.34
59443;BME280;45247;47.466;19.004;2023-05-21T11:37:23;99867.88;;;26.10;45.42
59443;BME280;45247;47.466;19.004;2023-05-21T11:39:54;99864.66;;;26.21;44.18
59443;BME280;45247;47.466;19.004;2023-05-21T11:42:33;99867.91;;;26.59;44.94
59443;BME280;45247;47.466;19.004;2023-05-21T11:45:02;99868.31;;;26.56;44.52
59443;BME280;45247;47.466;19.004;2023-05-21T11:47:31;99861.88;;;26.36;45.15
59443;BME280;45247;47.466;19.004;2023-05-21T11:50:00;99850.34;;;26.49;44.34
59443;BME280;45247;47.466;19.004;2023-05-21T11:52:29;99852.28;;;26.83;45.19
59443;BME280;45247;47.466;19.004;2023-05-21T11:54:58;99856.25;;;26.16;45.63
59443;BME280;45247;47.466;19.004;2023-05-21T11:57:27;99861.66;;;26.59;46.45
59443;BME280;45247;47.466;19.004;2023-05-21T12:00:00;99848.81;;;26.67;43.92
59443;BME280;45247;47.466;19.004;2023-05-21T12:02:36;99848.59;;;26.90;43.54
59443;BME280;45247;47.466;19.004;2023-05-21T12:05:05;99842.97;;;27.20;43.85
59443;BME280;45247;47.466;19.004;2023-05-21T12:07:35;99837.13;;;27.23;44.40
59443;BME280;45247;47.466;19.004;2023-05-21T12:10:05;99844.00;;;27.67;46.19
59443;BME280;45247;47.466;19.004;2023-05-21T12:12:33;99840.66;;;26.89;43.70
59443;BME280;45247;47.466;19.004;2023-05-21T12:15:22;99843.94;;;26.84;43.51
59443;BME280;45247;47.466;19.004;2023-05-21T12:17:50;99856.97;;;27.02;43.46
59443;BME280;45247;47.466;19.004;2023-05-21T12:20:19;99839.59;;;27.18;43.95
59443;BME280;45247;47.466;19.004;2023-05-21T12:22:48;99834.72;;;27.48;44.51
59443;BME280;45247;47.466;19.004;2023-05-21T12:25:18;99827.81;;;27.39;41.49
59443;BME280;45247;47.466;19.004;2023-05-21T12:27:47;99828.13;;;26.81;42.71
59443;BME280;45247;47.466;19.004;2023-05-21T12:30:18;99835.03;;;26.56;43.54
59443;BME280;45247;47.466;19.004;2023-05-21T12:32:50;99828.78;;;26.34;42.54
59443;BME280;45247;47.466;19.004;2023-05-21T12:35:21;99831.81;;;26.45;42.73
59443;BME280;45247;47.466;19.004;2023-05-21T12:37:50;99819.44;;;26.92;42.07
59443;BME280;45247;47.466;19.004;2023-05-21T12:40:18;99824.78;;;27.14;42.40
59443;BME280;45247;47.466;19.004;2023-05-21T12:42:48;99819.97;;;27.09;42.09
59443;BME280;45247;47.466;19.004;2023-05-21T12:45:16;99820.09;;;27.29;43.95
59443;BME280;45247;47.466;19.004;2023-05-21T12:47:48;99807.81;;;27.40;43.92
59443;BME280;45247;47.466;19.004;2023-05-21T12:50:22;99811.47;;;26.84;43.52
59443;BME280;45247;47.466;19.004;2023-05-21T12:52:53;99809.91;;;27.44;44.59
59443;BME280;45247;47.466;19.004;2023-05-21T12:55:23;99807.38;;;27.30;43.11
59443;BME280;45247;47.466;19.004;2023-05-21T12:58:02;99806.09;;;26.91;42.23
59443;BME280;45247;47.466;19.004;2023-05-21T13:00:34;99807.16;;;26.62;42.09
59443;BME280;45247;47.466;19.004;2023-05-21T13:03:04;99799.69;;;26.99;42.10